createdAt,value
2023-03-28T00:00:48.005Z,547.00
2023-03-28T00:01:38.069Z,552.00
2023-03-28T00:02:28.139Z,543.00
2023-03-28T00:03:18.137Z,545.00
2023-03-28T00:04:08.258Z,550.00
2023-03-28T00:04:58.260Z,546.00
2023-03-28T00:05:48.363Z,543.00
2023-03-28T00:06:38.351Z,547.00
2023-03-28T00:07:28.426Z,555.00
2023-03-28T00:08:18.489Z,552.00
2023-03-28T00:09:08.779Z,562.00
2023-03-28T00:09:58.850Z,558.00
2023-03-28T00:10:48.930Z,549.00
2023-03-28T00:11:39.251Z,555.00
2023-03-28T00:12:29.350Z,554.00
2023-03-28T00:13:19.379Z,548.00
2023-03-28T00:14:09.696Z,553.00
2023-03-28T00:14:59.768Z,553.00
2023-03-28T00:15:49.871Z,546.00
2023-03-28T00:16:39.853Z,544.00
2023-03-28T00:17:29.917Z,547.00
2023-03-28T00:18:19.970Z,537.00
2023-03-28T00:19:10.020Z,540.00
2023-03-28T00:20:00.142Z,554.00
2023-03-28T00:20:50.124Z,550.00
2023-03-28T00:21:40.214Z,555.00
2023-03-28T00:22:30.244Z,557.00
2023-03-28T00:23:20.278Z,563.00
2023-03-28T00:24:10.387Z,559.00
2023-03-28T00:25:00.430Z,563.00
2023-03-28T00:25:50.443Z,561.00
2023-03-28T00:26:40.523Z,567.00
2023-03-28T00:27:30.582Z,572.00
2023-03-28T00:28:20.587Z,555.00
2023-03-28T00:29:10.652Z,556.00
2023-03-28T00:30:00.909Z,547.00
2023-03-28T00:30:51.051Z,545.00
2023-03-28T00:31:41.086Z,549.00
2023-03-28T00:32:31.087Z,547.00
2023-03-28T00:33:21.099Z,556.00
2023-03-28T00:34:11.167Z,547.00
2023-03-28T00:35:01.274Z,547.00
2023-03-28T00:35:51.305Z,557.00
2023-03-28T00:36:41.352Z,569.00
2023-03-28T00:37:31.433Z,561.00
2023-03-28T00:38:21.465Z,561.00
2023-03-28T00:39:11.543Z,549.00
2023-03-28T00:40:01.620Z,554.00
2023-03-28T00:40:51.655Z,546.00
2023-03-28T00:41:41.716Z,554.00
2023-03-28T00:42:31.801Z,558.00
2023-03-28T00:43:21.831Z,554.00
2023-03-28T00:44:12.064Z,557.00
2023-03-28T00:45:02.145Z,565.00
2023-03-28T00:46:02.666Z,562.00
2023-03-28T00:46:43.267Z,562.00
2023-03-28T00:47:32.328Z,561.00
2023-03-28T00:48:22.352Z,560.00
2023-03-28T00:49:12.430Z,562.00
2023-03-28T00:50:02.417Z,553.00
2023-03-28T00:50:52.477Z,555.00
2023-03-28T00:51:42.549Z,547.00
2023-03-28T00:52:32.710Z,546.00
2023-03-28T00:53:22.778Z,562.00
2023-03-28T00:54:12.810Z,549.00
2023-03-28T00:55:03.141Z,549.00
2023-03-28T00:55:53.189Z,536.00
2023-03-28T00:56:43.245Z,538.00
2023-03-28T00:57:33.595Z,545.00
2023-03-28T00:58:23.619Z,557.00
2023-03-28T00:59:13.690Z,552.00
2023-03-28T01:00:03.748Z,561.00
2023-03-28T01:00:53.820Z,560.00
2023-03-28T01:01:43.916Z,559.00
2023-03-28T01:02:33.994Z,566.00
2023-03-28T01:03:24.021Z,564.00
2023-03-28T01:04:14.012Z,565.00
2023-03-28T01:05:04.095Z,565.00
2023-03-28T01:05:54.109Z,560.00
2023-03-28T01:06:44.394Z,563.00
2023-03-28T01:07:34.476Z,562.00
2023-03-28T01:08:24.535Z,564.00
2023-03-28T01:09:14.549Z,567.00
2023-03-28T01:10:04.583Z,563.00
2023-03-28T01:10:54.644Z,568.00
2023-03-28T01:11:44.748Z,567.00
2023-03-28T01:12:34.813Z,562.00
2023-03-28T01:13:24.837Z,569.00
2023-03-28T01:14:14.898Z,562.00
2023-03-28T01:15:04.976Z,571.00
2023-03-28T01:15:55.311Z,572.00
2023-03-28T01:16:45.288Z,570.00
2023-03-28T01:17:35.382Z,565.00
2023-03-28T01:18:25.373Z,562.00
2023-03-28T01:19:15.447Z,568.00
2023-03-28T01:20:05.524Z,566.00
2023-03-28T01:20:55.598Z,560.00
2023-03-28T01:21:45.669Z,554.00
2023-03-28T01:22:35.784Z,563.00
2023-03-28T01:23:25.795Z,556.00
2023-03-28T01:24:15.860Z,555.00
2023-03-28T01:25:06.069Z,553.00
2023-03-28T01:25:56.092Z,547.00
2023-03-28T01:26:46.171Z,554.00
2023-03-28T01:27:36.731Z,552.00
2023-03-28T01:28:26.260Z,554.00
2023-03-28T01:29:16.459Z,562.00
2023-03-28T01:30:06.539Z,561.00
2023-03-28T01:30:56.576Z,557.00
2023-03-28T01:31:46.670Z,555.00
2023-03-28T01:32:36.701Z,562.00
2023-03-28T01:33:26.728Z,560.00
2023-03-28T01:34:16.798Z,563.00
2023-03-28T01:35:06.888Z,563.00
2023-03-28T01:35:57.079Z,566.00
2023-03-28T01:36:46.967Z,562.00
2023-03-28T01:37:37.008Z,557.00
2023-03-28T01:38:27.062Z,558.00
2023-03-28T01:39:17.090Z,563.00
2023-03-28T01:40:07.170Z,562.00
2023-03-28T01:40:57.196Z,566.00
2023-03-28T01:41:47.268Z,564.00
2023-03-28T01:42:37.349Z,556.00
2023-03-28T01:43:27.414Z,562.00
2023-03-28T01:44:17.432Z,558.00
2023-03-28T01:45:07.499Z,553.00
2023-03-28T01:45:57.713Z,561.00
2023-03-28T01:46:47.582Z,557.00
2023-03-28T01:47:37.629Z,552.00
2023-03-28T01:48:27.653Z,554.00
2023-03-28T01:49:17.730Z,555.00
2023-03-28T01:50:07.809Z,554.00
2023-03-28T01:50:57.850Z,554.00
2023-03-28T01:51:47.878Z,561.00
2023-03-28T01:52:37.941Z,551.00
2023-03-28T01:53:27.974Z,556.00
2023-03-28T01:54:18.003Z,551.00
2023-03-28T01:55:08.084Z,554.00
2023-03-28T01:55:58.440Z,551.00
2023-03-28T01:56:48.319Z,558.00
2023-03-28T01:57:38.382Z,553.00
2023-03-28T01:58:28.358Z,551.00
2023-03-28T01:59:18.406Z,551.00
2023-03-28T02:00:08.483Z,555.00
2023-03-28T02:00:58.565Z,557.00
2023-03-28T02:01:48.556Z,558.00
2023-03-28T02:02:38.698Z,556.00
2023-03-28T02:03:28.663Z,551.00
2023-03-28T02:04:20.420Z,558.00
2023-03-28T02:05:08.763Z,550.00
2023-03-28T02:05:58.970Z,555.00
2023-03-28T02:06:49.010Z,558.00
2023-03-28T02:07:39.063Z,558.00
2023-03-28T02:08:29.107Z,560.00
2023-03-28T02:09:19.500Z,562.00
2023-03-28T02:10:09.197Z,557.00
2023-03-28T02:10:59.268Z,559.00
2023-03-28T02:11:49.347Z,553.00
2023-03-28T02:12:39.439Z,554.00
2023-03-28T02:13:29.724Z,550.00
2023-03-28T02:14:19.756Z,555.00
2023-03-28T02:15:09.880Z,552.00
2023-03-28T02:16:00.033Z,556.00
2023-03-28T02:16:50.156Z,560.00
2023-03-28T02:17:40.058Z,556.00
2023-03-28T02:18:30.057Z,556.00
2023-03-28T02:19:20.092Z,538.00
2023-03-28T02:20:10.136Z,552.00
2023-03-28T02:21:00.156Z,544.00
2023-03-28T02:21:50.233Z,554.00
2023-03-28T02:22:40.321Z,560.00
2023-03-28T02:23:30.356Z,562.00
2023-03-28T02:24:20.383Z,559.00
2023-03-28T02:25:10.456Z,565.00
2023-03-28T02:26:00.752Z,563.00
2023-03-28T02:26:50.854Z,555.00
2023-03-28T02:27:40.909Z,556.00
2023-03-28T02:28:30.943Z,562.00
2023-03-28T02:29:20.961Z,564.00
2023-03-28T02:30:11.044Z,563.00
2023-03-28T02:31:01.100Z,570.00
2023-03-28T02:31:51.210Z,564.00
2023-03-28T02:32:41.231Z,556.00
2023-03-28T02:33:31.248Z,543.00
2023-03-28T02:34:21.314Z,548.00
2023-03-28T02:35:11.404Z,546.00
2023-03-28T02:36:01.619Z,565.00
2023-03-28T02:36:51.510Z,572.00
2023-03-28T02:37:41.597Z,561.00
2023-03-28T02:38:31.632Z,557.00
2023-03-28T02:39:21.665Z,550.00
2023-03-28T02:40:11.736Z,549.00
2023-03-28T02:41:01.770Z,553.00
2023-03-28T02:41:51.842Z,562.00
2023-03-28T02:42:41.895Z,560.00
2023-03-28T02:43:31.947Z,562.00
2023-03-28T02:44:22.015Z,559.00
2023-03-28T02:45:12.071Z,559.00
2023-03-28T02:46:02.494Z,559.00
2023-03-28T02:46:52.189Z,558.00
2023-03-28T02:47:42.269Z,559.00
2023-03-28T02:48:32.268Z,563.00
2023-03-28T02:49:22.300Z,557.00
2023-03-28T02:50:12.381Z,558.00
2023-03-28T02:51:02.402Z,547.00
2023-03-28T02:51:52.443Z,558.00
2023-03-28T02:52:42.490Z,566.00
2023-03-28T02:53:32.533Z,571.00
2023-03-28T02:54:22.578Z,569.00
2023-03-28T02:55:12.622Z,573.00
2023-03-28T02:56:02.848Z,564.00
2023-03-28T02:56:52.851Z,562.00
2023-03-28T02:57:42.825Z,562.00
2023-03-28T02:58:32.842Z,564.00
2023-03-28T02:59:22.876Z,566.00
2023-03-28T03:00:12.942Z,571.00
2023-03-28T03:01:03.017Z,574.00
2023-03-28T03:01:53.134Z,580.00
2023-03-28T03:02:43.381Z,577.00
2023-03-28T03:03:33.215Z,571.00
2023-03-28T03:04:23.196Z,560.00
2023-03-28T03:05:13.277Z,565.00
2023-03-28T03:06:03.345Z,560.00
2023-03-28T03:06:53.419Z,559.00
2023-03-28T03:07:43.506Z,560.00
2023-03-28T03:08:33.530Z,566.00
2023-03-28T03:09:23.556Z,561.00
2023-03-28T03:10:13.628Z,565.00
2023-03-28T03:11:03.863Z,553.00
2023-03-28T03:11:53.961Z,556.00
2023-03-28T03:12:44.001Z,562.00
2023-03-28T03:13:34.023Z,566.00
2023-03-28T03:14:24.096Z,572.00
2023-03-28T03:15:14.128Z,580.00
2023-03-28T03:16:04.245Z,570.00
2023-03-28T03:16:54.282Z,564.00
2023-03-28T03:17:44.357Z,559.00
2023-03-28T03:18:34.395Z,559.00
2023-03-28T03:19:24.415Z,556.00
2023-03-28T03:20:14.744Z,563.00
2023-03-28T03:21:04.798Z,565.00
2023-03-28T03:21:54.853Z,563.00
2023-03-28T03:22:45.194Z,574.00
2023-03-28T03:23:35.264Z,571.00
2023-03-28T03:24:25.330Z,582.00
2023-03-28T03:25:15.669Z,571.00
2023-03-28T03:26:05.734Z,566.00
2023-03-28T03:26:55.799Z,553.00
2023-03-28T03:27:46.150Z,562.00
2023-03-28T03:28:36.199Z,560.00
2023-03-28T03:29:26.208Z,564.00
2023-03-28T03:30:17.292Z,559.00
2023-03-28T03:31:06.351Z,564.00
2023-03-28T03:31:56.383Z,565.00
2023-03-28T03:32:46.475Z,565.00
2023-03-28T03:33:36.484Z,565.00
2023-03-28T03:34:26.588Z,570.00
2023-03-28T03:35:16.630Z,562.00
2023-03-28T03:36:06.757Z,566.00
2023-03-28T03:36:56.850Z,562.00
2023-03-28T03:37:46.901Z,557.00
2023-03-28T03:38:36.953Z,555.00
2023-03-28T03:39:26.977Z,562.00
2023-03-28T03:40:17.096Z,560.00
2023-03-28T03:41:07.093Z,566.00
2023-03-28T03:41:57.165Z,565.00
2023-03-28T03:42:47.273Z,568.00
2023-03-28T03:43:37.295Z,566.00
2023-03-28T03:44:27.334Z,562.00
2023-03-28T03:45:17.410Z,569.00
2023-03-28T03:46:07.483Z,568.00
2023-03-28T03:46:57.519Z,569.00
2023-03-28T03:47:47.582Z,569.00
2023-03-28T03:48:37.606Z,568.00
2023-03-28T03:49:28.698Z,568.00
2023-03-28T03:50:17.742Z,569.00
2023-03-28T03:51:07.806Z,570.00
2023-03-28T03:51:57.878Z,565.00
2023-03-28T03:52:47.954Z,571.00
2023-03-28T03:53:37.974Z,580.00
2023-03-28T03:54:28.044Z,578.00
2023-03-28T03:55:18.151Z,580.00
2023-03-28T03:56:08.226Z,577.00
2023-03-28T03:56:58.360Z,573.00
2023-03-28T03:57:48.607Z,585.00
2023-03-28T03:58:38.631Z,582.00
2023-03-28T03:59:28.691Z,587.00
2023-03-28T04:00:18.774Z,588.00
2023-03-28T04:01:08.837Z,583.00
2023-03-28T04:01:58.960Z,578.00
2023-03-28T04:02:49.001Z,582.00
2023-03-28T04:03:39.096Z,584.00
2023-03-28T04:04:29.096Z,585.00
2023-03-28T04:05:19.119Z,578.00
2023-03-28T04:06:09.161Z,574.00
2023-03-28T04:06:59.488Z,578.00
2023-03-28T04:07:49.556Z,577.00
2023-03-28T04:08:39.604Z,582.00
2023-03-28T04:09:29.927Z,578.00
2023-03-28T04:10:19.981Z,572.00
2023-03-28T04:11:10.000Z,578.00
2023-03-28T04:12:00.099Z,575.00
2023-03-28T04:12:50.150Z,577.00
2023-03-28T04:13:40.198Z,576.00
2023-03-28T04:14:30.217Z,578.00
2023-03-28T04:15:20.287Z,578.00
2023-03-28T04:16:10.357Z,581.00
2023-03-28T04:17:00.355Z,577.00
2023-03-28T04:17:50.558Z,582.00
2023-03-28T04:18:40.513Z,583.00
2023-03-28T04:19:30.543Z,591.00
2023-03-28T04:20:20.618Z,583.00
2023-03-28T04:21:10.720Z,592.00
2023-03-28T04:22:00.776Z,587.00
2023-03-28T04:22:50.811Z,582.00
2023-03-28T04:23:40.841Z,582.00
2023-03-28T04:24:30.908Z,592.00
2023-03-28T04:25:21.158Z,587.00
2023-03-28T04:26:11.227Z,594.00
2023-03-28T04:27:01.301Z,587.00
2023-03-28T04:27:51.604Z,594.00
2023-03-28T04:28:41.629Z,592.00
2023-03-28T04:29:31.731Z,596.00
2023-03-28T04:30:21.764Z,603.00
2023-03-28T04:31:11.847Z,604.00
2023-03-28T04:32:01.845Z,611.00
2023-03-28T04:32:51.951Z,606.00
2023-03-28T04:33:41.954Z,604.00
2023-03-28T04:34:32.036Z,603.00
2023-03-28T04:35:22.103Z,600.00
2023-03-28T04:36:12.169Z,603.00
2023-03-28T04:37:02.532Z,598.00
2023-03-28T04:37:52.579Z,601.00
2023-03-28T04:38:42.601Z,599.00
2023-03-28T04:39:32.937Z,594.00
2023-03-28T04:40:24.285Z,596.00
2023-03-28T04:41:13.006Z,601.00
2023-03-28T04:42:03.123Z,603.00
2023-03-28T04:42:53.137Z,596.00
2023-03-28T04:43:43.178Z,601.00
2023-03-28T04:44:33.212Z,596.00
2023-03-28T04:45:23.297Z,601.00
2023-03-28T04:46:13.342Z,603.00
2023-03-28T04:47:03.357Z,607.00
2023-03-28T04:47:53.468Z,613.00
2023-03-28T04:48:43.483Z,610.00
2023-03-28T04:49:33.512Z,616.00
2023-03-28T04:50:23.628Z,617.00
2023-03-28T04:51:13.634Z,620.00
2023-03-28T04:52:03.750Z,622.00
2023-03-28T04:52:53.812Z,614.00
2023-03-28T04:53:43.823Z,606.00
2023-03-28T04:54:33.859Z,602.00
2023-03-28T04:55:23.924Z,598.00
2023-03-28T04:56:14.015Z,601.00
2023-03-28T04:57:04.105Z,599.00
2023-03-28T04:57:54.111Z,597.00
2023-03-28T04:58:44.144Z,596.00
2023-03-28T04:59:34.232Z,596.00
2023-03-28T05:00:24.290Z,598.00
2023-03-28T05:01:14.607Z,606.00
2023-03-28T05:02:04.690Z,597.00
2023-03-28T05:02:54.769Z,594.00
2023-03-28T05:03:44.847Z,598.00
2023-03-28T05:04:34.795Z,599.00
2023-03-28T05:05:24.871Z,598.00
2023-03-28T05:06:14.939Z,603.00
2023-03-28T05:07:05.009Z,603.00
2023-03-28T05:07:55.067Z,600.00
2023-03-28T05:08:45.111Z,594.00
2023-03-28T05:09:35.148Z,594.00
2023-03-28T05:10:25.437Z,600.00
2023-03-28T05:11:15.510Z,591.00
2023-03-28T05:12:05.594Z,598.00
2023-03-28T05:12:55.932Z,599.00
2023-03-28T05:13:45.971Z,600.00
2023-03-28T05:14:36.002Z,606.00
2023-03-28T05:15:26.076Z,605.00
2023-03-28T05:16:16.122Z,615.00
2023-03-28T05:17:06.164Z,614.00
2023-03-28T05:17:56.358Z,614.00
2023-03-28T05:18:46.290Z,618.00
2023-03-28T05:19:36.312Z,626.00
2023-03-28T05:20:26.386Z,621.00
2023-03-28T05:21:16.415Z,631.00
2023-03-28T05:22:06.489Z,625.00
2023-03-28T05:22:56.590Z,624.00
2023-03-28T05:23:51.790Z,619.00
2023-03-28T05:24:37.717Z,619.00
2023-03-28T05:25:26.735Z,619.00
2023-03-28T05:26:16.796Z,620.00
2023-03-28T05:27:06.874Z,622.00
2023-03-28T05:27:56.954Z,627.00
2023-03-28T05:28:46.975Z,631.00
2023-03-28T05:29:37.003Z,625.00
2023-03-28T05:30:27.161Z,635.00
2023-03-28T05:31:17.382Z,629.00
2023-03-28T05:32:07.356Z,624.00
2023-03-28T05:32:57.653Z,622.00
2023-03-28T05:33:47.657Z,630.00
2023-03-28T05:34:37.716Z,637.00
2023-03-28T05:35:27.784Z,633.00
2023-03-28T05:36:17.831Z,643.00
2023-03-28T05:37:07.885Z,635.00
2023-03-28T05:37:57.942Z,626.00
2023-03-28T05:38:47.959Z,634.00
2023-03-28T05:39:38.032Z,628.00
2023-03-28T05:40:28.135Z,638.00
2023-03-28T05:41:18.146Z,642.00
2023-03-28T05:42:08.196Z,645.00
2023-03-28T05:42:58.234Z,639.00
2023-03-28T05:43:48.264Z,641.00
2023-03-28T05:44:38.302Z,642.00
2023-03-28T05:45:28.375Z,651.00
2023-03-28T05:46:18.501Z,645.00
2023-03-28T05:47:08.489Z,641.00
2023-03-28T05:47:58.552Z,645.00
2023-03-28T05:48:49.618Z,643.00
2023-03-28T05:49:38.606Z,646.00
2023-03-28T05:50:28.682Z,640.00
2023-03-28T05:51:18.717Z,642.00
2023-03-28T05:52:09.019Z,649.00
2023-03-28T05:52:59.069Z,647.00
2023-03-28T05:53:49.103Z,645.00
2023-03-28T05:54:39.171Z,641.00
2023-03-28T05:55:29.252Z,647.00
2023-03-28T05:56:19.300Z,641.00
2023-03-28T05:57:09.411Z,638.00
2023-03-28T05:57:59.439Z,639.00
2023-03-28T05:58:49.499Z,633.00
2023-03-28T05:59:39.537Z,633.00
2023-03-28T06:00:29.644Z,627.00
2023-03-28T06:01:19.898Z,631.00
2023-03-28T06:02:09.985Z,632.00
2023-03-28T06:03:00.061Z,639.00
2023-03-28T06:03:50.115Z,633.00
2023-03-28T06:04:40.126Z,638.00
2023-03-28T06:05:30.197Z,636.00
2023-03-28T06:06:20.236Z,631.00
2023-03-28T06:07:10.305Z,633.00
2023-03-28T06:08:00.382Z,634.00
2023-03-28T06:08:50.421Z,636.00
2023-03-28T06:09:40.455Z,641.00
2023-03-28T06:10:30.534Z,641.00
2023-03-28T06:11:20.555Z,638.00
2023-03-28T06:12:10.665Z,638.00
2023-03-28T06:13:00.710Z,636.00
2023-03-28T06:13:50.734Z,637.00
2023-03-28T06:14:40.798Z,637.00
2023-03-28T06:15:30.865Z,642.00
2023-03-28T06:16:30.322Z,643.00
2023-03-28T06:17:12.078Z,643.00
2023-03-28T06:18:01.122Z,639.00
2023-03-28T06:18:51.144Z,645.00
2023-03-28T06:19:41.196Z,644.00
2023-03-28T06:20:31.245Z,648.00
2023-03-28T06:21:21.304Z,650.00
2023-03-28T06:22:11.378Z,642.00
2023-03-28T06:23:01.598Z,643.00
2023-03-28T06:23:51.617Z,643.00
2023-03-28T06:24:41.690Z,638.00
2023-03-28T06:25:32.032Z,643.00
2023-03-28T06:26:22.083Z,645.00
2023-03-28T06:27:12.183Z,643.00
2023-03-28T06:28:02.524Z,639.00
2023-03-28T06:28:52.581Z,645.00
2023-03-28T06:29:42.639Z,642.00
2023-03-28T06:30:32.654Z,643.00
2023-03-28T06:31:22.748Z,640.00
2023-03-28T06:32:12.741Z,643.00
2023-03-28T06:33:02.931Z,645.00
2023-03-28T06:33:52.853Z,651.00
2023-03-28T06:34:42.926Z,639.00
2023-03-28T06:35:33.008Z,652.00
2023-03-28T06:36:23.153Z,647.00
2023-03-28T06:37:13.393Z,643.00
2023-03-28T06:38:03.552Z,640.00
2023-03-28T06:38:53.685Z,657.00
2023-03-28T06:39:43.571Z,647.00
2023-03-28T06:40:33.593Z,650.00
2023-03-28T06:41:23.670Z,648.00
2023-03-28T06:42:13.705Z,632.00
2023-03-28T06:43:03.821Z,636.00
2023-03-28T06:43:53.813Z,643.00
2023-03-28T06:44:43.899Z,640.00
2023-03-28T06:45:33.960Z,632.00
2023-03-28T06:46:24.279Z,638.00
2023-03-28T06:47:14.289Z,629.00
2023-03-28T06:48:04.499Z,630.00
2023-03-28T06:48:54.415Z,636.00
2023-03-28T06:49:44.480Z,636.00
2023-03-28T06:50:34.555Z,642.00
2023-03-28T06:51:24.622Z,642.00
2023-03-28T06:52:14.690Z,637.00
2023-03-28T06:53:04.781Z,640.00
2023-03-28T06:53:54.798Z,631.00
2023-03-28T06:54:46.602Z,641.00
2023-03-28T06:55:34.918Z,638.00
2023-03-28T06:56:25.076Z,638.00
2023-03-28T06:57:15.205Z,639.00
2023-03-28T06:58:05.226Z,639.00
2023-03-28T06:58:55.259Z,640.00
2023-03-28T06:59:45.304Z,637.00
2023-03-28T07:00:35.369Z,639.00
2023-03-28T07:01:25.477Z,638.00
2023-03-28T07:02:15.546Z,638.00
2023-03-28T07:03:05.626Z,645.00
2023-03-28T07:03:55.719Z,646.00
2023-03-28T07:04:45.667Z,647.00
2023-03-28T07:05:35.911Z,648.00
2023-03-28T07:06:25.951Z,657.00
2023-03-28T07:07:16.004Z,650.00
2023-03-28T07:08:06.092Z,653.00
2023-03-28T07:08:56.135Z,648.00
2023-03-28T07:09:46.220Z,647.00
2023-03-28T07:10:36.259Z,639.00
2023-03-28T07:11:26.327Z,638.00
2023-03-28T07:12:16.352Z,637.00
2023-03-28T07:13:06.443Z,638.00
2023-03-28T07:13:56.483Z,638.00
2023-03-28T07:14:46.618Z,637.00
2023-03-28T07:15:36.603Z,629.00
2023-03-28T07:16:26.703Z,629.00
2023-03-28T07:17:16.716Z,625.00
2023-03-28T07:18:06.848Z,630.00
2023-03-28T07:18:56.798Z,637.00
2023-03-28T07:19:46.876Z,630.00
2023-03-28T07:20:36.911Z,639.00
2023-03-28T07:21:26.985Z,641.00
2023-03-28T07:22:17.019Z,647.00
2023-03-28T07:23:07.143Z,637.00
2023-03-28T07:23:57.128Z,634.00
2023-03-28T07:24:47.212Z,627.00
2023-03-28T07:25:37.223Z,639.00
2023-03-28T07:26:27.297Z,642.00
2023-03-28T07:27:18.552Z,627.00
2023-03-28T07:28:07.432Z,637.00
2023-03-28T07:28:57.468Z,624.00
2023-03-28T07:29:47.550Z,633.00
2023-03-28T07:30:37.616Z,632.00
2023-03-28T07:31:27.712Z,613.00
2023-03-28T07:32:17.762Z,625.00
2023-03-28T07:33:18.417Z,622.00
2023-03-28T07:33:58.893Z,622.00
2023-03-28T07:34:47.917Z,623.00
2023-03-28T07:35:38.047Z,625.00
2023-03-28T07:36:28.050Z,622.00
2023-03-28T07:37:18.074Z,607.00
2023-03-28T07:38:08.189Z,603.00
2023-03-28T07:38:58.210Z,609.00
2023-03-28T07:39:48.413Z,607.00
2023-03-28T07:40:38.441Z,617.00
2023-03-28T07:41:28.512Z,612.00
2023-03-28T07:42:18.593Z,617.00
2023-03-28T07:43:08.644Z,624.00
2023-03-28T07:43:58.675Z,620.00
2023-03-28T07:44:48.719Z,620.00
2023-03-28T07:45:38.780Z,613.00
2023-03-28T07:46:28.917Z,613.00
2023-03-28T07:47:18.879Z,617.00
2023-03-28T07:48:09.083Z,616.00
2023-03-28T07:48:59.024Z,602.00
2023-03-28T07:49:49.102Z,595.00
2023-03-28T07:50:39.129Z,606.00
2023-03-28T07:51:29.209Z,611.00
2023-03-28T07:52:19.249Z,609.00
2023-03-28T07:53:09.298Z,599.00
2023-03-28T07:53:59.326Z,589.00
2023-03-28T07:54:49.406Z,590.00
2023-03-28T07:55:52.009Z,600.00
2023-03-28T07:56:30.489Z,598.00
2023-03-28T07:57:19.684Z,600.00
2023-03-28T07:58:09.633Z,587.00
2023-03-28T07:58:59.666Z,586.00
2023-03-28T07:59:49.736Z,576.00
2023-03-28T08:00:39.812Z,569.00
2023-03-28T08:01:29.860Z,563.00
2023-03-28T08:02:20.073Z,582.00
2023-03-28T08:03:10.239Z,577.00
2023-03-28T08:04:00.179Z,569.00
2023-03-28T08:04:50.165Z,578.00
2023-03-28T08:05:40.255Z,586.00
2023-03-28T08:06:32.465Z,585.00
2023-03-28T08:07:20.297Z,577.00
2023-03-28T08:08:10.374Z,575.00
2023-03-28T08:09:00.397Z,575.00
2023-03-28T08:09:50.469Z,586.00
2023-03-28T08:10:40.495Z,594.00
2023-03-28T08:11:30.576Z,600.00
2023-03-28T08:12:20.611Z,595.00
2023-03-28T08:13:10.705Z,589.00
2023-03-28T08:14:00.727Z,583.00
2023-03-28T08:14:50.801Z,584.00
2023-03-28T08:15:40.868Z,593.00
2023-03-28T08:16:30.967Z,586.00
2023-03-28T08:17:20.939Z,592.00
2023-03-28T08:18:11.129Z,585.00
2023-03-28T08:19:10.831Z,580.00
2023-03-28T08:19:52.122Z,580.00
2023-03-28T08:20:41.204Z,581.00
2023-03-28T08:21:31.263Z,582.00
2023-03-28T08:22:21.332Z,581.00
2023-03-28T08:23:11.372Z,575.00
2023-03-28T08:24:01.399Z,574.00
2023-03-28T08:24:51.432Z,583.00
2023-03-28T08:25:41.719Z,585.00
2023-03-28T08:26:31.758Z,579.00
2023-03-28T08:27:21.822Z,575.00
2023-03-28T08:28:11.917Z,573.00
2023-03-28T08:29:01.937Z,565.00
2023-03-28T08:29:52.009Z,554.00
2023-03-28T08:30:42.089Z,551.00
2023-03-28T08:31:32.169Z,567.00
2023-03-28T08:32:22.195Z,576.00
2023-03-28T08:33:12.237Z,588.00
2023-03-28T08:34:02.442Z,582.00
2023-03-28T08:34:52.312Z,566.00
2023-03-28T08:35:42.454Z,561.00
2023-03-28T08:36:32.460Z,559.00
2023-03-28T08:37:22.542Z,565.00
2023-03-28T08:38:12.609Z,569.00
2023-03-28T08:39:02.619Z,575.00
2023-03-28T08:39:52.692Z,562.00
2023-03-28T08:40:42.768Z,568.00
2023-03-28T08:41:32.963Z,574.00
2023-03-28T08:42:23.045Z,572.00
2023-03-28T08:43:13.161Z,562.00
2023-03-28T08:44:03.456Z,566.00
2023-03-28T08:44:53.489Z,569.00
2023-03-28T08:45:43.564Z,564.00
2023-03-28T08:46:33.637Z,563.00
2023-03-28T08:47:23.635Z,570.00
2023-03-28T08:48:13.718Z,573.00
2023-03-28T08:49:03.719Z,572.00
2023-03-28T08:49:53.807Z,569.00
2023-03-28T08:50:43.896Z,576.00
2023-03-28T08:51:33.927Z,578.00
2023-03-28T08:52:24.004Z,580.00
2023-03-28T08:53:14.312Z,578.00
2023-03-28T08:54:04.361Z,601.00
2023-03-28T08:54:54.397Z,614.00
2023-03-28T08:55:44.470Z,622.00
2023-03-28T08:56:34.498Z,606.00
2023-03-28T08:57:24.566Z,582.00
2023-03-28T08:58:14.607Z,578.00
2023-03-28T08:59:04.654Z,586.00
2023-03-28T08:59:54.716Z,573.00
2023-03-28T09:00:44.764Z,564.00
2023-03-28T09:01:34.833Z,563.00
2023-03-28T09:02:25.014Z,564.00
2023-03-28T09:03:15.012Z,585.00
2023-03-28T09:04:05.110Z,578.00
2023-03-28T09:05:02.090Z,573.00
2023-03-28T09:05:46.154Z,573.00
2023-03-28T09:06:35.147Z,574.00
2023-03-28T09:07:25.217Z,573.00
2023-03-28T09:08:16.614Z,568.00
2023-03-28T09:09:05.356Z,563.00
2023-03-28T09:09:55.433Z,574.00
2023-03-28T09:10:45.460Z,579.00
2023-03-28T09:11:35.563Z,577.00
2023-03-28T09:12:25.692Z,566.00
2023-03-28T09:13:15.779Z,565.00
2023-03-28T09:14:05.805Z,565.00
2023-03-28T09:14:55.854Z,563.00
2023-03-28T09:15:45.928Z,561.00
2023-03-28T09:16:36.098Z,561.00
2023-03-28T09:17:26.102Z,573.00
2023-03-28T09:18:16.133Z,581.00
2023-03-28T09:19:06.169Z,562.00
2023-03-28T09:19:56.251Z,579.00
2023-03-28T09:20:46.293Z,584.00
2023-03-28T09:21:36.597Z,570.00
2023-03-28T09:22:26.692Z,565.00
2023-03-28T09:23:16.672Z,557.00
2023-03-28T09:24:06.691Z,561.00
2023-03-28T09:24:56.774Z,563.00
2023-03-28T09:25:46.807Z,564.00
2023-03-28T09:26:36.896Z,573.00
2023-03-28T09:27:26.911Z,577.00
2023-03-28T09:28:17.021Z,578.00
2023-03-28T09:29:07.029Z,572.00
2023-03-28T09:29:57.101Z,582.00
2023-03-28T09:30:47.379Z,585.00
2023-03-28T09:31:37.480Z,580.00
2023-03-28T09:32:27.518Z,583.00
2023-03-28T09:33:17.568Z,584.00
2023-03-28T09:34:07.605Z,585.00
2023-03-28T09:34:57.666Z,586.00
2023-03-28T09:35:47.728Z,594.00
2023-03-28T09:36:48.291Z,579.00
2023-03-28T09:37:28.824Z,579.00
2023-03-28T09:38:17.861Z,580.00
2023-03-28T09:39:07.882Z,581.00
2023-03-28T09:39:57.970Z,581.00
2023-03-28T09:40:47.998Z,585.00
2023-03-28T09:41:38.076Z,590.00
2023-03-28T09:42:28.100Z,585.00
2023-03-28T09:43:18.323Z,584.00
2023-03-28T09:44:08.367Z,589.00
2023-03-28T09:44:58.433Z,591.00
2023-03-28T09:45:48.542Z,595.00
2023-03-28T09:46:38.548Z,592.00
2023-03-28T09:47:28.773Z,586.00
2023-03-28T09:48:19.717Z,600.00
2023-03-28T09:49:08.689Z,588.00
2023-03-28T09:50:09.407Z,592.00
2023-03-28T09:50:48.831Z,593.00
2023-03-28T09:51:38.908Z,594.00
2023-03-28T09:52:28.973Z,591.00
2023-03-28T09:53:19.076Z,582.00
2023-03-28T09:54:09.078Z,587.00
2023-03-28T09:54:59.140Z,581.00
2023-03-28T09:55:58.030Z,593.00
2023-03-28T09:56:40.227Z,593.00
2023-03-28T09:57:29.264Z,586.00
2023-03-28T09:58:19.334Z,585.00
2023-03-28T09:59:09.350Z,589.00
2023-03-28T09:59:59.442Z,577.00
2023-03-28T10:00:49.488Z,589.00
2023-03-28T10:01:39.634Z,586.00
2023-03-28T10:02:29.735Z,588.00
2023-03-28T10:03:19.794Z,587.00
2023-03-28T10:04:09.861Z,590.00
2023-03-28T10:04:59.965Z,588.00
2023-03-28T10:05:49.944Z,589.00
2023-03-28T10:06:40.034Z,595.00
2023-03-28T10:07:30.058Z,593.00
2023-03-28T10:08:20.165Z,591.00
2023-03-28T10:09:10.293Z,592.00
2023-03-28T10:10:00.261Z,592.00
2023-03-28T10:10:50.599Z,582.00
2023-03-28T10:11:40.406Z,617.00
2023-03-28T10:12:30.424Z,626.00
2023-03-28T10:13:20.533Z,620.00
2023-03-28T10:14:10.549Z,610.00
2023-03-28T10:15:00.635Z,612.00
2023-03-28T10:15:50.746Z,589.00
2023-03-28T10:16:40.751Z,578.00
2023-03-28T10:17:30.845Z,562.00
2023-03-28T10:18:20.865Z,584.00
2023-03-28T10:19:10.895Z,575.00
2023-03-28T10:20:00.971Z,564.00
2023-03-28T10:20:50.994Z,557.00
2023-03-28T10:21:41.082Z,562.00
2023-03-28T10:22:31.133Z,559.00
2023-03-28T10:23:21.234Z,571.00
2023-03-28T10:24:11.263Z,564.00
2023-03-28T10:25:01.621Z,570.00